createdAt,value
2022-08-08T00:00:55.783Z,26.20
2022-08-08T00:03:32.431Z,26.30
2022-08-08T00:06:28.322Z,26.30
2022-08-08T00:09:16.075Z,26.30
2022-08-08T00:12:09.363Z,26.30
2022-08-08T00:14:59.909Z,26.20
2022-08-08T00:17:58.242Z,26.30
2022-08-08T00:20:29.795Z,26.30
2022-08-08T00:23:02.340Z,26.30
2022-08-08T00:25:46.711Z,26.30
2022-08-08T00:28:35.385Z,26.30
2022-08-08T00:32:15.245Z,26.30
2022-08-08T00:34:50.419Z,26.30
2022-08-08T00:37:47.898Z,26.30
2022-08-08T00:41:12.290Z,26.30
2022-08-08T00:43:58.823Z,26.30
2022-08-08T00:47:19.377Z,26.30
2022-08-08T00:49:50.503Z,26.30
2022-08-08T00:53:01.135Z,26.30
2022-08-08T00:55:53.708Z,26.30
2022-08-08T00:58:39.891Z,26.30
2022-08-08T01:01:29.186Z,26.30
2022-08-08T01:04:13.972Z,26.30
2022-08-08T01:07:16.377Z,26.30
2022-08-08T01:10:20.566Z,26.30
2022-08-08T01:12:47.478Z,26.30
2022-08-08T01:15:37.212Z,26.30
2022-08-08T01:18:25.511Z,26.30
2022-08-08T01:22:03.853Z,26.30
2022-08-08T01:24:53.683Z,26.30
2022-08-08T01:27:47.341Z,26.30
2022-08-08T01:30:45.100Z,26.30
2022-08-08T01:33:54.292Z,26.30
2022-08-08T01:37:17.493Z,26.30
2022-08-08T01:39:59.154Z,26.30
2022-08-08T01:42:47.982Z,26.30
2022-08-08T01:45:41.583Z,26.30
2022-08-08T01:48:30.540Z,26.30
2022-08-08T01:51:30.338Z,26.30
2022-08-08T01:55:26.699Z,26.30
2022-08-08T01:57:17.688Z,26.30
2022-08-08T02:00:03.892Z,26.30
2022-08-08T02:02:48.573Z,26.30
2022-08-08T02:05:23.208Z,26.30
2022-08-08T02:08:14.021Z,26.30
2022-08-08T02:11:05.727Z,26.30
2022-08-08T02:13:54.671Z,26.30
2022-08-08T02:16:37.096Z,26.30
2022-08-08T02:20:07.571Z,26.30
2022-08-08T02:22:56.960Z,26.30
2022-08-08T02:25:46.945Z,26.30
2022-08-08T02:28:48.489Z,26.30
2022-08-08T02:31:54.218Z,26.30
2022-08-08T02:35:08.164Z,26.30
2022-08-08T02:38:02.903Z,26.30
2022-08-08T02:40:38.638Z,26.30
2022-08-08T02:44:42.584Z,26.30
2022-08-08T02:47:02.111Z,26.30
2022-08-08T02:49:53.395Z,26.30
2022-08-08T02:52:50.392Z,26.30
2022-08-08T02:55:37.182Z,26.30
2022-08-08T02:58:10.004Z,26.30
2022-08-08T03:01:03.057Z,26.30
2022-08-08T03:05:04.760Z,26.30
2022-08-08T03:06:44.992Z,26.30
2022-08-08T03:09:50.773Z,26.30
2022-08-08T03:13:01.705Z,26.30
2022-08-08T03:16:03.308Z,26.30
2022-08-08T03:18:53.109Z,26.30
2022-08-08T03:21:19.687Z,26.30
2022-08-08T03:23:59.705Z,26.30
2022-08-08T03:26:42.164Z,26.30
2022-08-08T03:29:20.515Z,26.30
2022-08-08T03:32:12.338Z,26.30
2022-08-08T03:34:41.153Z,26.30
2022-08-08T03:37:59.990Z,26.30
2022-08-08T03:40:06.874Z,26.30
2022-08-08T03:42:47.690Z,26.30
2022-08-08T03:46:06.290Z,26.30
2022-08-08T03:48:21.122Z,26.30
2022-08-08T03:50:57.240Z,26.30
2022-08-08T03:53:42.459Z,26.30
2022-08-08T03:56:31.058Z,26.30
2022-08-08T03:58:59.253Z,26.30
2022-08-08T04:02:15.835Z,26.30
2022-08-08T04:04:23.179Z,26.30
2022-08-08T04:07:01.241Z,26.30
2022-08-08T04:09:59.032Z,26.30
2022-08-08T04:12:15.969Z,26.30
2022-08-08T04:14:45.159Z,26.30
2022-08-08T04:17:22.943Z,26.30
2022-08-08T04:19:59.379Z,26.30
2022-08-08T04:22:29.659Z,26.30
2022-08-08T04:24:56.747Z,26.30
2022-08-08T04:28:01.322Z,26.30
2022-08-08T04:30:17.243Z,26.30
2022-08-08T04:32:48.039Z,26.30
2022-08-08T04:35:18.099Z,26.30
2022-08-08T04:37:49.254Z,26.30
2022-08-08T04:40:17.807Z,26.30
2022-08-08T04:42:46.789Z,26.30
2022-08-08T04:45:23.600Z,26.30
2022-08-08T04:47:53.088Z,24.70
2022-08-08T04:50:25.373Z,23.30
2022-08-08T04:53:00.696Z,22.40
2022-08-08T04:55:47.217Z,21.90
2022-08-08T04:58:18.495Z,21.70
2022-08-08T05:00:47.646Z,21.40
2022-08-08T05:03:19.106Z,21.30
2022-08-08T05:06:12.964Z,21.30
2022-08-08T05:08:44.583Z,21.30
2022-08-08T05:11:18.582Z,21.10
2022-08-08T05:13:54.800Z,21.10
2022-08-08T05:16:53.304Z,21.00
2022-08-08T05:20:12.463Z,21.20
2022-08-08T05:22:00.543Z,21.80
2022-08-08T05:24:27.741Z,22.40
2022-08-08T05:26:57.587Z,23.00
2022-08-08T05:29:24.372Z,23.50
2022-08-08T05:32:05.283Z,23.80
2022-08-08T05:34:41.645Z,24.00
2022-08-08T05:37:17.230Z,24.20
2022-08-08T05:39:56.932Z,24.30
2022-08-08T05:42:46.091Z,24.50
2022-08-08T05:45:25.457Z,24.50
2022-08-08T05:48:08.318Z,24.60
2022-08-08T05:50:36.790Z,24.60
2022-08-08T05:53:55.225Z,24.70
2022-08-08T05:56:11.052Z,24.80
2022-08-08T05:58:57.878Z,24.80
2022-08-08T06:01:52.804Z,24.90
2022-08-08T06:04:22.670Z,24.90
2022-08-08T06:06:53.099Z,24.90
2022-08-08T06:09:41.529Z,25.00
2022-08-08T06:12:14.238Z,25.00
2022-08-08T06:14:47.935Z,25.10
2022-08-08T06:17:19.618Z,25.10
2022-08-08T06:19:48.484Z,25.10
2022-08-08T06:25:02.126Z,25.10
2022-08-08T06:27:46.201Z,25.10
2022-08-08T06:30:20.219Z,25.20
2022-08-08T06:32:57.815Z,25.20
2022-08-08T06:36:07.910Z,25.20
2022-08-08T06:38:19.726Z,25.20
2022-08-08T06:40:53.786Z,25.20
2022-08-08T06:43:30.760Z,25.30
2022-08-08T06:46:02.237Z,25.30
2022-08-08T06:48:29.661Z,25.30
2022-08-08T06:50:58.528Z,25.30
2022-08-08T06:53:39.219Z,25.30
2022-08-08T06:56:08.969Z,25.30
2022-08-08T06:58:37.074Z,25.40
2022-08-08T07:01:24.465Z,25.40
2022-08-08T07:04:38.692Z,25.30
2022-08-08T07:07:12.312Z,25.40
2022-08-08T07:10:07.937Z,25.40
2022-08-08T07:13:00.403Z,25.40
2022-08-08T07:16:07.155Z,25.40
2022-08-08T07:18:49.260Z,25.40
2022-08-08T07:21:20.338Z,25.40
2022-08-08T07:24:03.088Z,25.40
2022-08-08T07:26:35.427Z,25.50
2022-08-08T07:29:05.501Z,25.50
2022-08-08T07:31:35.967Z,25.50
2022-08-08T07:34:08.622Z,25.50
2022-08-08T07:36:48.188Z,25.50
2022-08-08T07:39:22.480Z,25.50
2022-08-08T07:42:03.671Z,25.60
2022-08-08T07:44:37.770Z,25.60
2022-08-08T07:47:07.945Z,25.60
2022-08-08T07:49:34.736Z,25.60
2022-08-08T07:52:02.771Z,25.60
2022-08-08T07:54:39.125Z,25.60
2022-08-08T07:57:36.122Z,25.60
2022-08-08T08:00:13.325Z,25.60
2022-08-08T08:02:50.947Z,25.60
2022-08-08T08:05:33.467Z,25.60
2022-08-08T08:08:06.935Z,25.60
2022-08-08T08:10:36.118Z,25.60
2022-08-08T08:13:25.889Z,25.60
2022-08-08T08:16:13.804Z,25.70
2022-08-08T08:18:56.113Z,25.70
2022-08-08T08:21:44.695Z,25.70
2022-08-08T08:24:15.752Z,25.70
2022-08-08T08:26:52.427Z,25.70
2022-08-08T08:29:19.816Z,25.70
2022-08-08T08:31:57.933Z,25.70
2022-08-08T08:34:32.391Z,25.70
2022-08-08T08:37:03.365Z,25.80
2022-08-08T08:39:59.810Z,25.80
2022-08-08T08:42:31.693Z,25.70
2022-08-08T08:45:22.048Z,25.80
2022-08-08T08:47:55.059Z,25.80
2022-08-08T08:50:32.904Z,25.80
2022-08-08T08:53:55.277Z,25.80
2022-08-08T08:55:53.979Z,25.80
2022-08-08T08:58:32.547Z,25.80
2022-08-08T09:01:08.605Z,25.80
2022-08-08T09:03:46.984Z,25.80
2022-08-08T09:06:28.329Z,25.80
2022-08-08T09:09:25.898Z,25.80
2022-08-08T09:12:02.202Z,25.80
2022-08-08T09:14:34.022Z,25.80
2022-08-08T09:17:07.082Z,25.90
2022-08-08T09:21:59.384Z,25.80
2022-08-08T09:22:27.264Z,25.90
2022-08-08T09:24:56.349Z,25.90
2022-08-08T09:27:56.193Z,25.80
2022-08-08T09:30:14.718Z,25.90
2022-08-08T09:33:54.396Z,25.90
2022-08-08T09:35:49.983Z,25.90
2022-08-08T09:39:00.499Z,25.90
2022-08-08T09:42:15.203Z,25.90
2022-08-08T09:44:34.240Z,25.90
2022-08-08T09:48:02.282Z,25.90
2022-08-08T09:49:55.884Z,25.90
2022-08-08T09:52:56.093Z,25.90
2022-08-08T09:55:51.783Z,25.90
2022-08-08T09:58:19.886Z,25.90
2022-08-08T10:00:57.499Z,25.90
2022-08-08T10:03:31.332Z,26.00
2022-08-08T10:05:58.929Z,25.90
2022-08-08T10:08:26.413Z,25.90
2022-08-08T10:10:58.507Z,25.90
2022-08-08T10:13:35.400Z,26.00
2022-08-08T10:16:03.420Z,26.00
2022-08-08T10:18:36.091Z,26.00
2022-08-08T10:21:25.622Z,26.00
2022-08-08T10:24:02.837Z,26.00
2022-08-08T10:26:57.455Z,26.00
2022-08-08T10:29:57.080Z,26.00
2022-08-08T10:32:36.033Z,26.00
2022-08-08T10:36:01.952Z,26.00
2022-08-08T10:38:08.433Z,26.00
2022-08-08T10:40:38.477Z,26.00
2022-08-08T10:43:06.693Z,26.00
2022-08-08T10:45:55.663Z,26.00
2022-08-08T10:48:56.699Z,26.00
2022-08-08T10:51:26.649Z,26.00
2022-08-08T10:54:00.134Z,26.00
2022-08-08T10:56:36.197Z,26.00
2022-08-08T10:59:14.136Z,26.00
2022-08-08T11:01:49.578Z,26.00
2022-08-08T11:04:38.445Z,26.10
2022-08-08T11:07:07.233Z,26.10
2022-08-08T11:09:34.598Z,26.10
2022-08-08T11:12:12.689Z,26.10
2022-08-08T11:14:57.870Z,26.10
2022-08-08T11:17:58.869Z,26.10
2022-08-08T11:20:32.759Z,26.10
2022-08-08T11:23:05.505Z,26.10
2022-08-08T11:25:52.325Z,26.10
2022-08-08T11:28:26.052Z,26.10
2022-08-08T11:30:59.706Z,26.10
2022-08-08T11:33:51.606Z,26.10
2022-08-08T11:36:15.602Z,26.10
2022-08-08T11:38:55.346Z,26.20
2022-08-08T11:41:28.182Z,26.20
2022-08-08T11:44:01.336Z,26.20
2022-08-08T11:46:30.607Z,26.10
2022-08-08T11:49:04.287Z,26.10
2022-08-08T11:51:39.938Z,26.20
2022-08-08T11:54:09.686Z,26.10
2022-08-08T11:56:58.250Z,26.20
2022-08-08T11:59:58.421Z,26.20
2022-08-08T12:02:32.265Z,26.20
2022-08-08T12:05:08.297Z,26.20
2022-08-08T12:07:56.778Z,26.20
2022-08-08T12:10:26.052Z,26.20
2022-08-08T12:13:10.456Z,26.20
2022-08-08T12:15:48.168Z,26.20
2022-08-08T12:18:21.191Z,26.20
2022-08-08T12:20:50.349Z,26.20
2022-08-08T12:23:43.266Z,26.20
2022-08-08T12:26:27.296Z,26.30
2022-08-08T12:29:02.613Z,26.20
2022-08-08T12:31:39.492Z,26.30
2022-08-08T12:34:35.936Z,26.30
2022-08-08T12:37:08.840Z,26.30
2022-08-08T12:39:59.944Z,26.30
2022-08-08T12:42:27.311Z,26.30
2022-08-08T12:45:53.756Z,26.30
2022-08-08T12:48:09.796Z,26.30
2022-08-08T12:50:48.839Z,26.30
2022-08-08T12:53:30.341Z,26.30
2022-08-08T12:56:19.133Z,26.30
2022-08-08T12:58:55.494Z,26.30
2022-08-08T13:01:36.750Z,26.30
2022-08-08T13:04:18.595Z,26.30
2022-08-08T13:07:01.174Z,26.30
2022-08-08T13:09:43.141Z,26.40
2022-08-08T13:12:40.511Z,26.30
2022-08-08T13:15:12.047Z,26.30
2022-08-08T13:18:07.680Z,26.30
2022-08-08T13:20:27.751Z,26.40
2022-08-08T13:23:30.054Z,26.30
2022-08-08T13:25:43.566Z,26.40
2022-08-08T13:28:16.528Z,26.40
2022-08-08T13:30:44.379Z,26.40
2022-08-08T13:33:18.610Z,26.40
2022-08-08T13:35:50.106Z,26.40
2022-08-08T13:38:18.246Z,26.40
2022-08-08T13:40:45.881Z,26.40
2022-08-08T13:43:16.478Z,26.40
2022-08-08T13:45:47.403Z,26.40
2022-08-08T13:48:16.664Z,26.40
2022-08-08T13:50:52.466Z,26.50
2022-08-08T13:53:34.284Z,26.50
2022-08-08T13:56:11.552Z,26.50
2022-08-08T13:58:56.034Z,26.50
2022-08-08T14:01:42.142Z,26.50
2022-08-08T14:04:23.365Z,26.50
2022-08-08T14:06:58.816Z,26.50
2022-08-08T14:10:04.551Z,26.50
2022-08-08T14:12:33.647Z,26.50
2022-08-08T14:15:00.834Z,26.50
2022-08-08T14:17:58.105Z,26.50
2022-08-08T14:20:56.831Z,26.50
2022-08-08T14:23:20.996Z,26.50
2022-08-08T14:26:10.464Z,26.50
2022-08-08T14:28:40.005Z,26.60
2022-08-08T14:31:09.365Z,26.60
2022-08-08T14:33:36.811Z,26.60
2022-08-08T14:36:06.016Z,26.60
2022-08-08T14:38:52.488Z,26.70
2022-08-08T14:41:45.123Z,26.60
2022-08-08T14:44:16.979Z,26.60
2022-08-08T14:47:00.230Z,26.70
2022-08-08T14:49:37.807Z,26.60
2022-08-08T14:52:27.822Z,26.60
2022-08-08T14:54:54.484Z,26.70
2022-08-08T14:58:03.312Z,26.70
2022-08-08T15:00:09.228Z,26.70
2022-08-08T15:02:58.262Z,26.70
2022-08-08T15:05:42.931Z,26.60
2022-08-08T15:08:22.347Z,26.70
2022-08-08T15:11:04.538Z,26.70
2022-08-08T15:13:39.987Z,26.70
2022-08-08T15:16:11.790Z,26.70
2022-08-08T15:18:44.122Z,26.80
2022-08-08T15:21:18.561Z,26.80
2022-08-08T15:23:51.327Z,26.90
2022-08-08T15:26:19.974Z,27.00
2022-08-08T15:28:50.906Z,27.00
2022-08-08T15:31:26.109Z,27.00
2022-08-08T15:34:06.647Z,27.00
2022-08-08T15:36:35.481Z,26.90
2022-08-08T15:39:03.849Z,27.00
2022-08-08T15:41:43.670Z,27.00
2022-08-08T15:44:13.892Z,27.10
2022-08-08T15:46:45.293Z,27.10
2022-08-08T15:49:12.533Z,27.10
2022-08-08T15:51:43.579Z,27.20
2022-08-08T15:54:18.639Z,27.20
2022-08-08T15:56:56.965Z,27.30
2022-08-08T16:00:05.315Z,27.30
2022-08-08T16:02:14.066Z,27.30
2022-08-08T16:04:42.426Z,27.30
2022-08-08T16:07:09.264Z,27.30
2022-08-08T16:13:09.180Z,27.30
2022-08-08T16:13:26.883Z,27.30
2022-08-08T16:15:09.796Z,27.30
2022-08-08T16:18:06.294Z,27.30
2022-08-08T16:20:29.351Z,27.30
2022-08-08T16:22:56.130Z,27.30
2022-08-08T16:25:24.356Z,27.30
2022-08-08T16:28:34.119Z,27.30
2022-08-08T16:30:55.703Z,27.30
2022-08-08T16:33:29.621Z,27.40
2022-08-08T16:36:05.798Z,27.30
2022-08-08T16:38:44.415Z,27.30
2022-08-08T16:41:20.102Z,27.30
2022-08-08T16:43:49.196Z,27.40
2022-08-08T16:46:43.146Z,27.40
2022-08-08T16:49:09.330Z,27.40
2022-08-08T16:55:02.065Z,27.40
2022-08-08T16:55:22.837Z,27.40
2022-08-08T16:57:23.414Z,27.40
2022-08-08T17:00:06.568Z,27.40
2022-08-08T17:02:39.734Z,27.40
2022-08-08T17:05:08.597Z,27.40
2022-08-08T17:07:37.581Z,27.40
2022-08-08T17:10:07.954Z,27.40
2022-08-08T17:12:36.377Z,27.40
2022-08-08T17:15:17.389Z,27.40
2022-08-08T17:18:02.206Z,27.50
2022-08-08T17:20:32.229Z,27.50
2022-08-08T17:23:16.340Z,27.50
2022-08-08T17:25:53.486Z,27.50
2022-08-08T17:28:31.519Z,27.50
2022-08-08T17:31:43.480Z,27.50
2022-08-08T17:34:36.562Z,27.60
2022-08-08T17:36:36.632Z,27.60
2022-08-08T17:39:05.437Z,27.60
2022-08-08T17:41:58.294Z,27.60
2022-08-08T17:44:29.360Z,27.60
2022-08-08T17:46:58.025Z,27.60
2022-08-08T17:49:37.953Z,27.60
2022-08-08T17:52:09.094Z,27.60
2022-08-08T17:54:35.957Z,27.60
2022-08-08T17:57:02.811Z,27.60
2022-08-08T17:59:30.589Z,27.60
2022-08-08T18:02:04.002Z,27.60
2022-08-08T18:04:32.998Z,27.70
2022-08-08T18:07:04.383Z,27.70
2022-08-08T18:09:51.075Z,27.70
2022-08-08T18:12:18.353Z,27.70
2022-08-08T18:14:48.811Z,27.70
2022-08-08T18:17:17.232Z,27.70
2022-08-08T18:19:46.087Z,27.60
2022-08-08T18:22:50.349Z,27.60
2022-08-08T18:25:17.900Z,27.60
2022-08-08T18:27:45.904Z,27.60
2022-08-08T18:30:13.451Z,27.60
2022-08-08T18:32:42.097Z,27.60
2022-08-08T18:35:15.890Z,27.50
2022-08-08T18:37:48.502Z,27.40
2022-08-08T18:40:15.584Z,27.40
2022-08-08T18:42:45.732Z,27.50
2022-08-08T18:45:44.862Z,27.40
2022-08-08T18:48:07.641Z,27.50
2022-08-08T18:50:39.649Z,27.50
2022-08-08T18:53:16.859Z,27.50
2022-08-08T18:55:44.971Z,27.50
2022-08-08T18:58:14.291Z,27.50
2022-08-08T19:00:46.384Z,27.40
2022-08-08T19:03:13.585Z,27.50
2022-08-08T19:05:44.141Z,27.40
2022-08-08T19:08:25.090Z,27.40
2022-08-08T19:10:56.780Z,27.40
2022-08-08T19:13:25.178Z,27.40
2022-08-08T19:15:55.822Z,27.40
2022-08-08T19:18:32.495Z,27.40
2022-08-08T19:21:29.477Z,27.40
2022-08-08T19:23:56.271Z,27.40
2022-08-08T19:26:30.789Z,27.40
2022-08-08T19:28:59.483Z,27.30
2022-08-08T19:31:31.794Z,27.20
2022-08-08T19:34:30.018Z,27.20
2022-08-08T19:36:58.479Z,26.80
2022-08-08T19:39:26.202Z,26.60
2022-08-08T19:42:01.896Z,26.60
2022-08-08T19:44:45.583Z,26.50
2022-08-08T19:47:14.199Z,26.40
2022-08-08T19:49:43.046Z,26.40
2022-08-08T19:52:13.299Z,26.30
2022-08-08T19:54:40.511Z,26.30
2022-08-08T19:57:10.024Z,26.20
2022-08-08T19:59:41.667Z,26.20
2022-08-08T20:02:10.716Z,26.10
2022-08-08T20:04:37.624Z,26.10
2022-08-08T20:08:29.786Z,26.00
2022-08-08T20:09:55.855Z,26.00
2022-08-08T20:12:32.123Z,26.00
2022-08-08T20:15:10.453Z,25.90
2022-08-08T20:17:45.564Z,25.90
2022-08-08T20:20:18.772Z,25.90
2022-08-08T20:22:46.356Z,25.90
2022-08-08T20:25:20.159Z,25.80
2022-08-08T20:27:50.560Z,25.80
2022-08-08T20:30:52.928Z,25.80
2022-08-08T20:33:20.152Z,25.80
2022-08-08T20:35:58.345Z,25.80
2022-08-08T20:38:32.303Z,25.80
2022-08-08T20:41:00.703Z,25.70
2022-08-08T20:43:44.218Z,25.70
2022-08-08T20:46:15.623Z,25.70
2022-08-08T20:48:44.223Z,25.80
2022-08-08T20:51:11.016Z,25.70
2022-08-08T20:53:59.011Z,25.60
2022-08-08T20:56:35.633Z,25.60
2022-08-08T20:59:05.983Z,25.60
2022-08-08T21:02:05.661Z,25.50
2022-08-08T21:04:20.269Z,25.40
2022-08-08T21:06:53.448Z,25.30
2022-08-08T21:09:21.411Z,25.30
2022-08-08T21:11:51.469Z,25.20
2022-08-08T21:14:30.036Z,25.20
2022-08-08T21:16:57.324Z,25.20
2022-08-08T21:19:25.872Z,25.10
2022-08-08T21:22:01.703Z,25.10
2022-08-08T21:24:30.628Z,25.10
2022-08-08T21:26:58.404Z,25.20
2022-08-08T21:30:04.506Z,25.20
2022-08-08T21:32:14.250Z,25.30
2022-08-08T21:34:51.902Z,25.50
2022-08-08T21:37:53.252Z,25.80
2022-08-08T21:40:11.289Z,26.00
2022-08-08T21:42:39.440Z,26.10
2022-08-08T21:45:44.441Z,26.20
2022-08-08T21:48:20.365Z,26.20
2022-08-08T21:50:42.436Z,26.30
2022-08-08T21:54:33.839Z,26.30
2022-08-08T21:56:19.151Z,26.30
2022-08-08T21:58:42.649Z,26.30
2022-08-08T22:01:11.493Z,26.30
2022-08-08T22:03:55.828Z,26.40
2022-08-08T22:06:31.777Z,26.40
2022-08-08T22:08:59.603Z,26.40
2022-08-08T22:11:51.206Z,26.40
2022-08-08T22:14:16.454Z,26.40
2022-08-08T22:16:44.405Z,26.40
2022-08-08T22:19:15.426Z,26.40
2022-08-08T22:21:43.128Z,26.40
2022-08-08T22:24:13.715Z,26.50
2022-08-08T22:27:02.375Z,26.50
2022-08-08T22:29:58.945Z,26.50
2022-08-08T22:32:13.794Z,26.50
2022-08-08T22:34:40.431Z,26.50
2022-08-08T22:37:14.734Z,26.50
2022-08-08T22:40:01.428Z,26.50
2022-08-08T22:42:32.050Z,26.50
2022-08-08T22:45:01.648Z,26.50
2022-08-08T22:47:34.600Z,26.50
2022-08-08T22:50:21.663Z,26.50
2022-08-08T22:54:23.788Z,26.50
2022-08-08T22:55:58.481Z,26.50
2022-08-08T22:58:28.834Z,26.50
2022-08-08T23:00:58.068Z,26.50
2022-08-08T23:03:34.400Z,26.50
2022-08-08T23:06:14.427Z,26.50
2022-08-08T23:08:54.370Z,26.50
2022-08-08T23:11:40.396Z,26.50
2022-08-08T23:14:11.529Z,26.50
2022-08-08T23:16:43.582Z,26.50
2022-08-08T23:19:12.887Z,26.50
2022-08-08T23:21:42.230Z,26.50
2022-08-08T23:24:09.340Z,26.50
2022-08-08T23:26:35.994Z,26.50
2022-08-08T23:29:06.321Z,26.50
2022-08-08T23:31:38.849Z,26.50
2022-08-08T23:34:17.905Z,26.50
2022-08-08T23:36:46.395Z,26.50
2022-08-08T23:39:13.356Z,26.60
2022-08-08T23:41:43.597Z,26.50
2022-08-08T23:44:13.033Z,26.60
2022-08-08T23:49:06.163Z,26.60
2022-08-08T23:49:26.685Z,26.60
2022-08-08T23:52:04.647Z,26.50
2022-08-08T23:54:42.832Z,26.60
2022-08-08T23:57:26.431Z,26.60
